Ash Ridge, Ohio
Current Conditions -  °F | °C
As of 11:55 PM on Friday 24 Oct 2014 (Local Time) from KFGX Reporting Station
Clear Clear  
Wind Chill: 49°   Ceiling: Unl
Heat Index: 49°   Visibility: 10mi
Dew Point: 40°   Wind: 3mph
Humidity: 71%   Direction: 210°SSW
Pressure: 30.07"   Gusts: NA
Location:  38.8698°N, 83.9081°W
Report Text: KFGX 250355Z AUTO 21003KT 10SM CLR 09/04 A3007 RMK AO2 T00930043
Loading
Personal Weather Stations






























Interactive Weather Map
Tropical Storm Tracking
New forecast layout! Learn more

10-Day Weather Forecast

Advertisements
Track Severe Weather on mobile